sensor_id;sensor_type;location;lat;lon;timestamp;pressure;altitude;pressure_sealevel;temperature;humidity
71149;BME280;59072;42.144;25.200;2022-09-13T00:00:39;99673.69;;;17.03;64.02
71149;BME280;59072;42.144;25.200;2022-09-13T00:03:05;99673.69;;;17.08;64.61
71149;BME280;59072;42.144;25.200;2022-09-13T00:05:31;99658.59;;;17.02;64.42
71149;BME280;59072;42.144;25.200;2022-09-13T00:07:57;99672.34;;;16.95;65.02
71149;BME280;59072;42.144;25.200;2022-09-13T00:10:24;99674.50;;;16.93;65.11
71149;BME280;59072;42.144;25.200;2022-09-13T00:12:50;99676.94;;;16.84;64.88
71149;BME280;59072;42.144;25.200;2022-09-13T00:15:15;99669.09;;;16.62;65.96
71149;BME280;59072;42.144;25.200;2022-09-13T00:17:41;99666.41;;;16.67;65.53
71149;BME280;59072;42.144;25.200;2022-09-13T00:20:07;99673.13;;;16.75;65.45
71149;BME280;59072;42.144;25.200;2022-09-13T00:22:34;99654.81;;;16.57;65.55
71149;BME280;59072;42.144;25.200;2022-09-13T00:24:59;99665.59;;;16.67;65.78
71149;BME280;59072;42.144;25.200;2022-09-13T00:27:25;99647.81;;;16.61;65.55
71149;BME280;59072;42.144;25.200;2022-09-13T00:29:51;99660.72;;;16.69;65.42
71149;BME280;59072;42.144;25.200;2022-09-13T00:32:16;99661.81;;;16.68;65.22
71149;BME280;59072;42.144;25.200;2022-09-13T00:34:42;99665.34;;;16.63;65.84
71149;BME280;59072;42.144;25.200;2022-09-13T00:37:07;99662.91;;;16.72;65.31
71149;BME280;59072;42.144;25.200;2022-09-13T00:39:33;99662.63;;;16.68;65.00
71149;BME280;59072;42.144;25.200;2022-09-13T00:41:58;99666.13;;;16.64;65.17
71149;BME280;59072;42.144;25.200;2022-09-13T00:47:14;99651.34;;;16.51;65.44
71149;BME280;59072;42.144;25.200;2022-09-13T00:49:45;99655.63;;;16.57;65.03
71149;BME280;59072;42.144;25.200;2022-09-13T00:52:15;99652.38;;;16.50;65.24
71149;BME280;59072;42.144;25.200;2022-09-13T00:54:50;99658.31;;;16.62;65.24
71149;BME280;59072;42.144;25.200;2022-09-13T00:57:19;99649.19;;;16.63;64.85
71149;BME280;59072;42.144;25.200;2022-09-13T00:59:59;99646.75;;;16.62;64.80
71149;BME280;59072;42.144;25.200;2022-09-13T01:02:31;99648.34;;;16.63;64.47
71149;BME280;59072;42.144;25.200;2022-09-13T01:04:57;99655.63;;;16.47;65.83
71149;BME280;59072;42.144;25.200;2022-09-13T01:07:23;99657.50;;;16.41;66.58
71149;BME280;59072;42.144;25.200;2022-09-13T01:09:49;99668.53;;;16.50;66.70
71149;BME280;59072;42.144;25.200;2022-09-13T01:15:05;99655.09;;;16.65;66.05
71149;BME280;59072;42.144;25.200;2022-09-13T01:17:32;99654.03;;;16.51;66.12
71149;BME280;59072;42.144;25.200;2022-09-13T01:19:59;99667.47;;;16.56;66.29
71149;BME280;59072;42.144;25.200;2022-09-13T01:31:22;99653.44;;;16.29;66.69
71149;BME280;59072;42.144;25.200;2022-09-13T01:39:05;99626.53;;;16.29;65.64
71149;BME280;59072;42.144;25.200;2022-09-13T01:42:06;99641.84;;;16.28;65.96
71149;BME280;59072;42.144;25.200;2022-09-13T01:44:57;99617.09;;;16.16;65.24
71149;BME280;59072;42.144;25.200;2022-09-13T01:47:40;99639.19;;;16.33;65.17
71149;BME280;59072;42.144;25.200;2022-09-13T01:50:11;99646.75;;;16.41;64.81
71149;BME280;59072;42.144;25.200;2022-09-13T01:52:55;99656.41;;;16.37;65.36
71149;BME280;59072;42.144;25.200;2022-09-13T01:58:15;99648.09;;;16.49;64.71
71149;BME280;59072;42.144;25.200;2022-09-13T02:03:52;99661.25;;;16.51;65.56
71149;BME280;59072;42.144;25.200;2022-09-13T02:06:26;99646.19;;;16.44;64.93
71149;BME280;59072;42.144;25.200;2022-09-13T02:09:02;99653.19;;;16.40;65.99
71149;BME280;59072;42.144;25.200;2022-09-13T02:11:30;99653.16;;;16.15;67.53
71149;BME280;59072;42.144;25.200;2022-09-13T02:14:03;99634.59;;;16.23;67.08
71149;BME280;59072;42.144;25.200;2022-09-13T02:16:40;99630.78;;;15.94;68.37
71149;BME280;59072;42.144;25.200;2022-09-13T02:19:12;99653.63;;;16.01;68.89
71149;BME280;59072;42.144;25.200;2022-09-13T02:21:42;99645.59;;;16.06;68.40
71149;BME280;59072;42.144;25.200;2022-09-13T02:24:18;99653.09;;;15.94;69.11
71149;BME280;59072;42.144;25.200;2022-09-13T02:26:49;99652.56;;;15.92;69.20
71149;BME280;59072;42.144;25.200;2022-09-13T02:29:18;99635.03;;;15.79;68.95
71149;BME280;59072;42.144;25.200;2022-09-13T02:31:57;99646.59;;;15.85;69.91
71149;BME280;59072;42.144;25.200;2022-09-13T02:34:29;99642.34;;;15.94;68.69
71149;BME280;59072;42.144;25.200;2022-09-13T02:36:56;99638.06;;;15.98;67.86
71149;BME280;59072;42.144;25.200;2022-09-13T02:39:24;99627.25;;;15.88;68.96
71149;BME280;59072;42.144;25.200;2022-09-13T02:42:09;99647.19;;;15.92;68.83
71149;BME280;59072;42.144;25.200;2022-09-13T02:44:43;99645.31;;;16.03;68.52
71149;BME280;59072;42.144;25.200;2022-09-13T02:55:12;99640.19;;;15.96;69.25
71149;BME280;59072;42.144;25.200;2022-09-13T03:00:24;99643.84;;;15.70;69.93
71149;BME280;59072;42.144;25.200;2022-09-13T03:02:50;99612.56;;;15.48;70.99
71149;BME280;59072;42.144;25.200;2022-09-13T03:05:17;99638.13;;;15.61;70.42
71149;BME280;59072;42.144;25.200;2022-09-13T03:07:43;99626.19;;;15.36;70.83
71149;BME280;59072;42.144;25.200;2022-09-13T03:10:10;99637.78;;;15.42;70.94
71149;BME280;59072;42.144;25.200;2022-09-13T03:27:16;99663.59;;;15.43;71.39
71149;BME280;59072;42.144;25.200;2022-09-13T03:30:16;99652.84;;;15.43;71.33
71149;BME280;59072;42.144;25.200;2022-09-13T03:32:49;99658.97;;;15.33;71.91
71149;BME280;59072;42.144;25.200;2022-09-13T03:35:51;99668.16;;;15.42;71.86
71149;BME280;59072;42.144;25.200;2022-09-13T03:41:04;99674.81;;;15.30;72.38
71149;BME280;59072;42.144;25.200;2022-09-13T03:43:40;99674.75;;;15.19;72.78
71149;BME280;59072;42.144;25.200;2022-09-13T03:46:11;99666.00;;;14.97;73.84
71149;BME280;59072;42.144;25.200;2022-09-13T03:48:40;99672.38;;;14.91;73.99
71149;BME280;59072;42.144;25.200;2022-09-13T03:51:07;99672.13;;;14.92;74.17
71149;BME280;59072;42.144;25.200;2022-09-13T03:53:37;99663.72;;;14.78;74.36
71149;BME280;59072;42.144;25.200;2022-09-13T03:56:14;99678.19;;;14.50;76.25
71149;BME280;59072;42.144;25.200;2022-09-13T03:58:40;99685.09;;;14.68;75.06
71149;BME280;59072;42.144;25.200;2022-09-13T04:01:06;99674.66;;;14.44;75.62
71149;BME280;59072;42.144;25.200;2022-09-13T04:03:32;99674.25;;;14.31;76.40
71149;BME280;59072;42.144;25.200;2022-09-13T04:05:57;99662.69;;;14.30;75.95
71149;BME280;59072;42.144;25.200;2022-09-13T04:08:23;99673.66;;;14.51;75.16
71149;BME280;59072;42.144;25.200;2022-09-13T04:10:49;99662.31;;;14.43;75.44
71149;BME280;59072;42.144;25.200;2022-09-13T04:13:16;99679.63;;;14.31;76.55
71149;BME280;59072;42.144;25.200;2022-09-13T04:15:41;99680.31;;;14.21;76.74
71149;BME280;59072;42.144;25.200;2022-09-13T04:18:07;99664.69;;;14.40;75.72
71149;BME280;59072;42.144;25.200;2022-09-13T04:20:33;99683.28;;;14.46;75.82
71149;BME280;59072;42.144;25.200;2022-09-13T04:23:00;99679.75;;;14.19;77.03
71149;BME280;59072;42.144;25.200;2022-09-13T04:25:26;99689.22;;;14.26;76.47
71149;BME280;59072;42.144;25.200;2022-09-13T04:27:55;99668.59;;;14.27;76.12
71149;BME280;59072;42.144;25.200;2022-09-13T04:30:22;99679.63;;;14.31;76.64
71149;BME280;59072;42.144;25.200;2022-09-13T04:32:47;99697.94;;;14.39;76.30
71149;BME280;59072;42.144;25.200;2022-09-13T04:35:13;99670.72;;;14.25;76.45
71149;BME280;59072;42.144;25.200;2022-09-13T04:37:44;99706.56;;;14.41;76.58
71149;BME280;59072;42.144;25.200;2022-09-13T04:40:10;99700.31;;;14.57;75.95
71149;BME280;59072;42.144;25.200;2022-09-13T04:42:35;99684.31;;;14.45;75.91
71149;BME280;59072;42.144;25.200;2022-09-13T04:45:01;99705.44;;;14.64;75.72
71149;BME280;59072;42.144;25.200;2022-09-13T04:47:27;99708.75;;;14.71;75.93
71149;BME280;59072;42.144;25.200;2022-09-13T04:49:52;99687.75;;;14.63;75.05
71149;BME280;59072;42.144;25.200;2022-09-13T04:52:18;99700.41;;;14.68;75.13
71149;BME280;59072;42.144;25.200;2022-09-13T04:54:44;99701.91;;;14.85;74.34
71149;BME280;59072;42.144;25.200;2022-09-13T04:57:09;99720.25;;;14.99;74.60
71149;BME280;59072;42.144;25.200;2022-09-13T04:59:35;99709.28;;;15.05;74.53
71149;BME280;59072;42.144;25.200;2022-09-13T05:02:01;99719.19;;;15.37;72.99
71149;BME280;59072;42.144;25.200;2022-09-13T05:04:26;99728.66;;;15.45;72.77
71149;BME280;59072;42.144;25.200;2022-09-13T05:06:51;99709.91;;;15.55;71.87
71149;BME280;59072;42.144;25.200;2022-09-13T05:09:17;99723.97;;;15.73;71.50
71149;BME280;59072;42.144;25.200;2022-09-13T05:11:42;99725.41;;;15.85;71.03
71149;BME280;59072;42.144;25.200;2022-09-13T05:14:09;99741.38;;;16.13;70.08
71149;BME280;59072;42.144;25.200;2022-09-13T05:16:35;99737.59;;;16.14;70.09
71149;BME280;59072;42.144;25.200;2022-09-13T05:19:01;99738.97;;;16.21;71.11
71149;BME280;59072;42.144;25.200;2022-09-13T05:21:27;99717.88;;;16.97;68.44
71149;BME280;59072;42.144;25.200;2022-09-13T05:23:54;99717.31;;;17.41;68.86
71149;BME280;59072;42.144;25.200;2022-09-13T05:26:21;99736.19;;;17.25;66.54
71149;BME280;59072;42.144;25.200;2022-09-13T05:28:47;99738.88;;;17.20;66.70
71149;BME280;59072;42.144;25.200;2022-09-13T05:31:21;99723.53;;;17.00;67.28
71149;BME280;59072;42.144;25.200;2022-09-13T05:33:53;99737.53;;;16.97;67.57
71149;BME280;59072;42.144;25.200;2022-09-13T05:36:18;99739.41;;;17.07;67.50
71149;BME280;59072;42.144;25.200;2022-09-13T05:38:44;99747.50;;;17.17;67.20
71149;BME280;59072;42.144;25.200;2022-09-13T05:41:09;99747.78;;;17.21;67.40
71149;BME280;59072;42.144;25.200;2022-09-13T05:43:35;99735.91;;;17.22;66.58
71149;BME280;59072;42.144;25.200;2022-09-13T05:46:02;99743.19;;;17.32;67.10
71149;BME280;59072;42.144;25.200;2022-09-13T05:48:28;99741.03;;;17.39;66.90
71149;BME280;59072;42.144;25.200;2022-09-13T05:50:54;99729.16;;;17.45;68.15
71149;BME280;59072;42.144;25.200;2022-09-13T05:53:20;99723.75;;;17.45;68.41
71149;BME280;59072;42.144;25.200;2022-09-13T05:55:45;99728.78;;;17.93;66.38
71149;BME280;59072;42.144;25.200;2022-09-13T05:58:10;99746.19;;;18.21;65.38
71149;BME280;59072;42.144;25.200;2022-09-13T06:00:36;99745.09;;;18.27;65.34
71149;BME280;59072;42.144;25.200;2022-09-13T06:03:02;99740.22;;;18.24;65.46
71149;BME280;59072;42.144;25.200;2022-09-13T06:05:27;99727.22;;;18.36;64.64
71149;BME280;59072;42.144;25.200;2022-09-13T06:07:53;99727.41;;;18.50;64.56
71149;BME280;59072;42.144;25.200;2022-09-13T06:10:18;99738.41;;;18.64;63.05
71149;BME280;59072;42.144;25.200;2022-09-13T06:12:45;99714.09;;;18.59;63.98
71149;BME280;59072;42.144;25.200;2022-09-13T06:15:10;99736.09;;;18.86;62.55
71149;BME280;59072;42.144;25.200;2022-09-13T06:17:36;99716.13;;;18.82;63.15
71149;BME280;59072;42.144;25.200;2022-09-13T06:20:02;99737.88;;;19.01;62.11
71149;BME280;59072;42.144;25.200;2022-09-13T06:22:27;99732.25;;;19.27;60.62
71149;BME280;59072;42.144;25.200;2022-09-13T06:24:58;99729.66;;;19.41;61.32
71149;BME280;59072;42.144;25.200;2022-09-13T06:27:23;99727.69;;;19.22;58.94
71149;BME280;59072;42.144;25.200;2022-09-13T06:29:49;99728.72;;;19.26;59.08
71149;BME280;59072;42.144;25.200;2022-09-13T06:32:14;99740.97;;;19.48;58.85
71149;BME280;59072;42.144;25.200;2022-09-13T06:34:39;99736.25;;;19.59;57.46
71149;BME280;59072;42.144;25.200;2022-09-13T06:37:05;99752.88;;;19.76;57.15
71149;BME280;59072;42.144;25.200;2022-09-13T06:39:30;99731.00;;;19.73;57.28
71149;BME280;59072;42.144;25.200;2022-09-13T06:45:18;99754.31;;;19.93;57.50
71149;BME280;59072;42.144;25.200;2022-09-13T06:47:43;99756.25;;;20.11;57.17
71149;BME280;59072;42.144;25.200;2022-09-13T06:50:09;99743.47;;;20.17;56.84
71149;BME280;59072;42.144;25.200;2022-09-13T06:52:34;99744.88;;;20.33;54.95
71149;BME280;59072;42.144;25.200;2022-09-13T06:55:00;99760.03;;;20.53;55.27
71149;BME280;59072;42.144;25.200;2022-09-13T06:57:29;99758.34;;;20.38;53.96
71149;BME280;59072;42.144;25.200;2022-09-13T06:59:54;99769.66;;;20.21;54.72
71149;BME280;59072;42.144;25.200;2022-09-13T07:02:20;99761.69;;;20.30;55.17
71149;BME280;59072;42.144;25.200;2022-09-13T07:04:45;99767.88;;;20.55;51.73
71149;BME280;59072;42.144;25.200;2022-09-13T07:07:11;99751.53;;;20.41;53.41
71149;BME280;59072;42.144;25.200;2022-09-13T07:09:36;99757.31;;;20.53;51.20
71149;BME280;59072;42.144;25.200;2022-09-13T07:12:04;99769.19;;;20.57;52.82
71149;BME280;59072;42.144;25.200;2022-09-13T07:14:30;99774.34;;;20.59;52.55
71149;BME280;59072;42.144;25.200;2022-09-13T07:16:55;99754.41;;;20.50;51.58
71149;BME280;59072;42.144;25.200;2022-09-13T07:19:23;99768.78;;;20.69;53.51
71149;BME280;59072;42.144;25.200;2022-09-13T07:21:50;99770.09;;;20.91;51.08
71149;BME280;59072;42.144;25.200;2022-09-13T07:24:16;99775.50;;;20.91;52.06
71149;BME280;59072;42.144;25.200;2022-09-13T07:26:43;99762.88;;;21.00;50.00
71149;BME280;59072;42.144;25.200;2022-09-13T07:29:12;99752.69;;;21.11;51.34
71149;BME280;59072;42.144;25.200;2022-09-13T07:31:41;99774.06;;;21.31;49.43
71149;BME280;59072;42.144;25.200;2022-09-13T07:34:11;99774.16;;;21.40;49.84
71149;BME280;59072;42.144;25.200;2022-09-13T07:36:37;99773.31;;;21.58;49.53
71149;BME280;59072;42.144;25.200;2022-09-13T07:39:04;99781.34;;;21.63;49.94
71149;BME280;59072;42.144;25.200;2022-09-13T07:41:31;99764.88;;;21.46;49.97
71149;BME280;59072;42.144;25.200;2022-09-13T07:43:57;99774.59;;;21.47;51.92
71149;BME280;59072;42.144;25.200;2022-09-13T07:46:27;99766.19;;;21.62;51.46
71149;BME280;59072;42.144;25.200;2022-09-13T07:48:53;99769.53;;;21.87;49.69
71149;BME280;59072;42.144;25.200;2022-09-13T07:51:21;99767.50;;;22.06;49.53
71149;BME280;59072;42.144;25.200;2022-09-13T07:53:50;99765.19;;;22.14;50.25
71149;BME280;59072;42.144;25.200;2022-09-13T07:56:21;99780.38;;;22.15;49.27
71149;BME280;59072;42.144;25.200;2022-09-13T07:58:48;99772.13;;;22.20;49.45
71149;BME280;59072;42.144;25.200;2022-09-13T08:01:24;99774.16;;;22.28;47.55
71149;BME280;59072;42.144;25.200;2022-09-13T08:04:01;99772.28;;;22.51;48.40
71149;BME280;59072;42.144;25.200;2022-09-13T08:06:29;99774.50;;;22.63;46.49
71149;BME280;59072;42.144;25.200;2022-09-13T08:08:55;99774.88;;;22.70;45.35
71149;BME280;59072;42.144;25.200;2022-09-13T08:11:33;99768.06;;;22.59;46.63
71149;BME280;59072;42.144;25.200;2022-09-13T08:13:59;99762.81;;;22.62;45.79
71149;BME280;59072;42.144;25.200;2022-09-13T08:16:26;99756.09;;;22.60;47.02
71149;BME280;59072;42.144;25.200;2022-09-13T08:18:57;99774.22;;;22.87;44.88
71149;BME280;59072;42.144;25.200;2022-09-13T08:21:23;99772.53;;;23.00;44.96
71149;BME280;59072;42.144;25.200;2022-09-13T08:23:53;99772.47;;;23.05;44.44
71149;BME280;59072;42.144;25.200;2022-09-13T08:26:20;99757.72;;;22.83;42.08
71149;BME280;59072;42.144;25.200;2022-09-13T08:28:45;99768.31;;;23.08;42.77
71149;BME280;59072;42.144;25.200;2022-09-13T08:31:15;99756.50;;;23.12;44.81
71149;BME280;59072;42.144;25.200;2022-09-13T08:33:43;99761.31;;;23.38;43.39
71149;BME280;59072;42.144;25.200;2022-09-13T08:36:09;99751.69;;;23.72;42.60
71149;BME280;59072;42.144;25.200;2022-09-13T08:38:34;99762.72;;;23.66;41.70
71149;BME280;59072;42.144;25.200;2022-09-13T08:43:53;99759.91;;;23.49;41.86
71149;BME280;59072;42.144;25.200;2022-09-13T08:46:24;99765.13;;;23.99;41.94
71149;BME280;59072;42.144;25.200;2022-09-13T08:48:55;99766.63;;;24.32;40.08
71149;BME280;59072;42.144;25.200;2022-09-13T08:51:29;99757.44;;;24.01;38.13
71149;BME280;59072;42.144;25.200;2022-09-13T08:53:56;99769.28;;;24.05;40.18
71149;BME280;59072;42.144;25.200;2022-09-13T08:56:50;99767.25;;;24.11;39.05
71149;BME280;59072;42.144;25.200;2022-09-13T08:59:36;99762.69;;;23.98;39.76
71149;BME280;59072;42.144;25.200;2022-09-13T09:02:40;99757.97;;;24.38;38.59
71149;BME280;59072;42.144;25.200;2022-09-13T09:05:17;99739.38;;;24.93;39.09
71149;BME280;59072;42.144;25.200;2022-09-13T09:07:50;99742.91;;;25.28;39.09
71149;BME280;59072;42.144;25.200;2022-09-13T09:15:20;99762.16;;;25.14;36.60
71149;BME280;59072;42.144;25.200;2022-09-13T09:17:48;99751.53;;;25.39;37.07
71149;BME280;59072;42.144;25.200;2022-09-13T09:20:22;99743.69;;;25.29;35.35
71149;BME280;59072;42.144;25.200;2022-09-13T09:22:50;99746.94;;;24.96;34.36
71149;BME280;59072;42.144;25.200;2022-09-13T09:25:16;99742.44;;;24.82;36.82
71149;BME280;59072;42.144;25.200;2022-09-13T09:27:42;99732.19;;;24.97;35.40
71149;BME280;59072;42.144;25.200;2022-09-13T09:30:12;99738.84;;;25.43;36.17
71149;BME280;59072;42.144;25.200;2022-09-13T09:40:48;99737.34;;;26.43;35.74
71149;BME280;59072;42.144;25.200;2022-09-13T09:43:18;99737.09;;;26.36;34.06
71149;BME280;59072;42.144;25.200;2022-09-13T09:45:46;99747.06;;;26.11;34.57
71149;BME280;59072;42.144;25.200;2022-09-13T09:48:17;99743.44;;;25.60;36.31
71149;BME280;59072;42.144;25.200;2022-09-13T09:50:47;99754.78;;;25.06;34.61
71149;BME280;59072;42.144;25.200;2022-09-13T09:53:32;99744.81;;;25.36;34.11
71149;BME280;59072;42.144;25.200;2022-09-13T09:56:05;99738.31;;;25.88;34.59
71149;BME280;59072;42.144;25.200;2022-09-13T09:58:41;99733.09;;;26.34;31.62
71149;BME280;59072;42.144;25.200;2022-09-13T10:06:30;99722.56;;;26.65;33.06
71149;BME280;59072;42.144;25.200;2022-09-13T10:11:48;99731.22;;;26.89;32.04
71149;BME280;59072;42.144;25.200;2022-09-13T10:19:30;99711.56;;;26.53;33.04
71149;BME280;59072;42.144;25.200;2022-09-13T10:22:11;99703.47;;;26.15;32.41
71149;BME280;59072;42.144;25.200;2022-09-13T10:24:37;99715.47;;;26.43;33.04
71149;BME280;59072;42.144;25.200;2022-09-13T10:27:04;99704.69;;;26.26;32.97
71149;BME280;59072;42.144;25.200;2022-09-13T10:29:30;99700.59;;;26.11;32.15
71149;BME280;59072;42.144;25.200;2022-09-13T10:31:57;99699.91;;;26.44;33.04
71149;BME280;59072;42.144;25.200;2022-09-13T10:34:32;99698.78;;;26.78;33.30
71149;BME280;59072;42.144;25.200;2022-09-13T10:37:11;99694.94;;;26.79;32.51
71149;BME280;59072;42.144;25.200;2022-09-13T10:39:54;99694.34;;;26.11;32.68
71149;BME280;59072;42.144;25.200;2022-09-13T10:42:23;99685.38;;;25.42;34.17
71149;BME280;59072;42.144;25.200;2022-09-13T10:45:04;99690.22;;;24.54;34.50
71149;BME280;59072;42.144;25.200;2022-09-13T10:47:33;99692.91;;;24.19;36.56
71149;BME280;59072;42.144;25.200;2022-09-13T10:50:24;99681.00;;;23.98;35.72
71149;BME280;59072;42.144;25.200;2022-09-13T10:52:54;99680.69;;;23.91;35.88
71149;BME280;59072;42.144;25.200;2022-09-13T11:09:12;99684.00;;;26.79;30.04
71149;BME280;59072;42.144;25.200;2022-09-13T11:16:48;99685.75;;;26.63;30.31
71149;BME280;59072;42.144;25.200;2022-09-13T11:22:19;99666.28;;;27.10;29.08
71149;BME280;59072;42.144;25.200;2022-09-13T11:30:23;99649.69;;;26.82;29.89
71149;BME280;59072;42.144;25.200;2022-09-13T11:43:03;99648.94;;;26.39;31.76
71149;BME280;59072;42.144;25.200;2022-09-13T11:46:05;99647.09;;;26.10;29.54
71149;BME280;59072;42.144;25.200;2022-09-13T11:56:45;99641.66;;;27.22;28.86
71149;BME280;59072;42.144;25.200;2022-09-13T12:01:57;99641.31;;;27.85;28.36
71149;BME280;59072;42.144;25.200;2022-09-13T12:04:31;99637.94;;;27.39;28.37
71149;BME280;59072;42.144;25.200;2022-09-13T12:07:02;99627.88;;;27.68;31.15
71149;BME280;59072;42.144;25.200;2022-09-13T12:09:35;99653.19;;;28.42;29.92
71149;BME280;59072;42.144;25.200;2022-09-13T12:12:06;99633.16;;;27.49;29.30
71149;BME280;59072;42.144;25.200;2022-09-13T12:17:09;99629.53;;;28.10;28.38
71149;BME280;59072;42.144;25.200;2022-09-13T12:19:45;99647.59;;;27.86;27.72
71149;BME280;59072;42.144;25.200;2022-09-13T12:22:14;99636.56;;;27.58;28.78
71149;BME280;59072;42.144;25.200;2022-09-13T12:24:54;99638.47;;;27.94;30.44
71149;BME280;59072;42.144;25.200;2022-09-13T12:30:16;99629.06;;;26.97;29.16
71149;BME280;59072;42.144;25.200;2022-09-13T12:32:44;99637.13;;;27.51;29.08
71149;BME280;59072;42.144;25.200;2022-09-13T12:38:16;99632.34;;;27.36;28.13
71149;BME280;59072;42.144;25.200;2022-09-13T12:41:14;99644.19;;;28.01;28.06
71149;BME280;59072;42.144;25.200;2022-09-13T12:46:41;99637.00;;;28.25;27.61
71149;BME280;59072;42.144;25.200;2022-09-13T12:52:09;99612.97;;;28.06;27.69
71149;BME280;59072;42.144;25.200;2022-09-13T12:55:05;99641.28;;;28.51;26.44
71149;BME280;59072;42.144;25.200;2022-09-13T13:00:25;99626.97;;;28.57;26.25
71149;BME280;59072;42.144;25.200;2022-09-13T13:05:40;99621.69;;;27.96;27.36
71149;BME280;59072;42.144;25.200;2022-09-13T13:13:39;99643.81;;;26.59;28.75
71149;BME280;59072;42.144;25.200;2022-09-13T13:18:51;99640.22;;;26.25;29.91
71149;BME280;59072;42.144;25.200;2022-09-13T13:26:56;99641.47;;;27.40;29.43
71149;BME280;59072;42.144;25.200;2022-09-13T13:29:29;99646.72;;;27.70;28.34
71149;BME280;59072;42.144;25.200;2022-09-13T13:39:38;99636.13;;;28.77;28.54
71149;BME280;59072;42.144;25.200;2022-09-13T13:54:57;99655.63;;;28.60;26.91
71149;BME280;59072;42.144;25.200;2022-09-13T13:57:30;99651.88;;;28.80;25.64
71149;BME280;59072;42.144;25.200;2022-09-13T14:14:16;99669.34;;;28.60;25.49
71149;BME280;59072;42.144;25.200;2022-09-13T14:19:41;99666.09;;;29.97;25.11
71149;BME280;59072;42.144;25.200;2022-09-13T14:24:45;99667.59;;;30.89;23.31
71149;BME280;59072;42.144;25.200;2022-09-13T14:27:19;99673.09;;;30.89;21.95
71149;BME280;59072;42.144;25.200;2022-09-13T14:29:57;99677.28;;;30.82;23.43
71149;BME280;59072;42.144;25.200;2022-09-13T14:32:26;99670.34;;;31.12;22.88
71149;BME280;59072;42.144;25.200;2022-09-13T14:35:01;99672.41;;;31.91;21.85
71149;BME280;59072;42.144;25.200;2022-09-13T14:37:34;99669.78;;;32.29;21.57
71149;BME280;59072;42.144;25.200;2022-09-13T14:40:20;99673.72;;;31.48;21.87
71149;BME280;59072;42.144;25.200;2022-09-13T14:42:48;99676.41;;;31.97;21.46
71149;BME280;59072;42.144;25.200;2022-09-13T14:45:17;99657.19;;;31.74;21.64
71149;BME280;59072;42.144;25.200;2022-09-13T14:50:34;99679.78;;;31.34;22.06
71149;BME280;59072;42.144;25.200;2022-09-13T14:53:04;99670.34;;;31.58;21.66
71149;BME280;59072;42.144;25.200;2022-09-13T14:55:54;99674.31;;;32.48;20.93
71149;BME280;59072;42.144;25.200;2022-09-13T14:58:27;99687.63;;;32.72;20.93
71149;BME280;59072;42.144;25.200;2022-09-13T15:01:02;99686.78;;;33.50;19.92
71149;BME280;59072;42.144;25.200;2022-09-13T15:03:29;99689.44;;;33.84;19.48
71149;BME280;59072;42.144;25.200;2022-09-13T15:06:00;99694.97;;;33.84;19.29
71149;BME280;59072;42.144;25.200;2022-09-13T15:10:51;99688.91;;;34.34;19.21
71149;BME280;59072;42.144;25.200;2022-09-13T15:13:17;99673.94;;;34.56;18.83
71149;BME280;59072;42.144;25.200;2022-09-13T15:15:43;99695.00;;;33.91;19.90
71149;BME280;59072;42.144;25.200;2022-09-13T15:21:01;99693.53;;;33.56;19.79
71149;BME280;59072;42.144;25.200;2022-09-13T15:23:32;99675.56;;;32.54;21.71
71149;BME280;59072;42.144;25.200;2022-09-13T15:26:17;99682.81;;;32.01;21.82
71149;BME280;59072;42.144;25.200;2022-09-13T15:31:10;99689.31;;;33.66;19.90
71149;BME280;59072;42.144;25.200;2022-09-13T15:33:36;99685.22;;;34.12;19.70
71149;BME280;59072;42.144;25.200;2022-09-13T15:36:31;99685.72;;;32.76;20.76
71149;BME280;59072;42.144;25.200;2022-09-13T15:41:36;99677.19;;;29.50;25.18
71149;BME280;59072;42.144;25.200;2022-09-13T15:44:04;99683.09;;;29.04;25.60
71149;BME280;59072;42.144;25.200;2022-09-13T15:46:30;99672.75;;;29.13;25.39
71149;BME280;59072;42.144;25.200;2022-09-13T15:49:02;99685.44;;;30.36;24.43
71149;BME280;59072;42.144;25.200;2022-09-13T15:51:29;99689.28;;;31.59;24.23
71149;BME280;59072;42.144;25.200;2022-09-13T15:53:55;99702.47;;;33.35;21.59
71149;BME280;59072;42.144;25.200;2022-09-13T15:56:33;99702.38;;;33.73;21.81
71149;BME280;59072;42.144;25.200;2022-09-13T15:58:59;99697.41;;;33.00;21.43
71149;BME280;59072;42.144;25.200;2022-09-13T16:01:25;99707.53;;;32.89;21.18
71149;BME280;59072;42.144;25.200;2022-09-13T16:03:52;99684.13;;;31.12;23.51
71149;BME280;59072;42.144;25.200;2022-09-13T16:06:17;99700.66;;;29.79;24.62
71149;BME280;59072;42.144;25.200;2022-09-13T16:08:42;99708.81;;;28.43;26.81
71149;BME280;59072;42.144;25.200;2022-09-13T16:11:08;99700.81;;;27.60;28.76
71149;BME280;59072;42.144;25.200;2022-09-13T16:13:33;99696.84;;;27.12;31.21
71149;BME280;59072;42.144;25.200;2022-09-13T16:16:00;99686.69;;;26.25;30.35
71149;BME280;59072;42.144;25.200;2022-09-13T16:18:26;99699.56;;;25.95;30.99
71149;BME280;59072;42.144;25.200;2022-09-13T16:20:51;99697.09;;;25.42;35.01
71149;BME280;59072;42.144;25.200;2022-09-13T16:23:17;99684.44;;;25.29;34.94
71149;BME280;59072;42.144;25.200;2022-09-13T16:25:42;99688.84;;;25.21;35.81
71149;BME280;59072;42.144;25.200;2022-09-13T16:28:16;99703.06;;;25.27;35.53
71149;BME280;59072;42.144;25.200;2022-09-13T16:30:42;99699.34;;;24.58;36.90
71149;BME280;59072;42.144;25.200;2022-09-13T16:33:07;99683.28;;;24.31;38.26
71149;BME280;59072;42.144;25.200;2022-09-13T16:35:33;99690.97;;;24.29;37.68
71149;BME280;59072;42.144;25.200;2022-09-13T16:37:58;99701.72;;;24.42;38.71
71149;BME280;59072;42.144;25.200;2022-09-13T16:40:24;99689.50;;;24.31;38.84
71149;BME280;59072;42.144;25.200;2022-09-13T16:42:50;99699.09;;;24.02;40.14
71149;BME280;59072;42.144;25.200;2022-09-13T16:45:15;99703.88;;;23.88;40.77